Time;durP1;ratioP1;P1;durP2;ratioP2;P2;SDS_P1;SDS_P2;PMS_P1;PMS_P2;Temp;Humidity;BMP_temperature;BMP_pressure;BME280_temperature;BME280_humidity;BME280_pressure;Samples;Min_cycle;Max_cycle;Signal;HPM_P1;HPM_P2
2023/03/22 00:01:33;;;;;;;2.73;2.50;;;9.80;93.10;;;;;;5076827;28;20175;-80
2023/03/22 00:03:59;;;;;;;2.70;2.50;;;9.70;93.20;;;;;;5094635;28;20168;-79
2023/03/22 00:06:25;;;;;;;5.47;3.17;;;9.60;93.30;;;;;;5084835;28;20189;-79
2023/03/22 00:08:52;;;;;;;2.77;2.67;;;9.60;93.40;;;;;;5093257;28;20607;-77
2023/03/22 00:11:20;;;;;;;2.50;2.40;;;9.60;93.40;;;;;;5094030;28;20168;-77
2023/03/22 00:13:46;;;;;;;2.40;2.20;;;9.70;93.30;;;;;;5093554;28;20190;-78
2023/03/22 00:16:13;;;;;;;2.07;1.93;;;9.60;93.30;;;;;;5093945;28;20207;-79
2023/03/22 00:18:40;;;;;;;3.07;2.67;;;9.60;93.40;;;;;;5094198;28;20165;-77
2023/03/22 00:21:11;;;;;;;2.50;2.30;;;9.60;93.40;;;;;;5076388;28;20175;-79
2023/03/22 00:23:37;;;;;;;2.60;2.40;;;9.50;93.60;;;;;;5094098;28;20151;-78
2023/03/22 00:26:03;;;;;;;2.47;2.27;;;9.40;93.80;;;;;;5094441;28;20182;-78
2023/03/22 00:28:29;;;;;;;2.50;2.30;;;9.30;93.80;;;;;;5094105;28;20629;-82
2023/03/22 00:31:00;;;;;;;2.50;2.30;;;9.30;93.80;;;;;;5094294;28;20171;-81
2023/03/22 00:33:27;;;;;;;2.50;2.27;;;9.30;93.90;;;;;;5075925;28;20530;-77
2023/03/22 00:35:58;;;;;;;2.23;2.13;;;9.30;93.90;;;;;;5095877;28;20237;-79
2023/03/22 00:38:24;;;;;;;3.00;2.07;;;9.30;93.90;;;;;;5109694;28;20150;-79
2023/03/22 00:40:50;;;;;;;2.17;2.07;;;9.30;93.90;;;;;;5105645;28;20209;-77
2023/03/22 00:43:16;;;;;;;2.37;2.27;;;9.20;94.00;;;;;;5095417;28;20569;-79
2023/03/22 00:45:42;;;;;;;2.83;2.50;;;9.20;93.90;;;;;;5094226;28;20253;-77
2023/03/22 00:48:09;;;;;;;2.80;2.60;;;9.30;93.90;;;;;;5094283;28;20661;-79
2023/03/22 00:50:36;;;;;;;2.30;2.07;;;9.30;94.00;;;;;;5094277;28;20213;-77
2023/03/22 00:53:02;;;;;;;2.20;2.10;;;9.20;94.00;;;;;;5077366;28;20179;-78
2023/03/22 00:55:28;;;;;;;2.30;2.10;;;9.30;94.00;;;;;;5076811;28;20686;-80
2023/03/22 00:57:54;;;;;;;2.20;2.10;;;9.30;94.00;;;;;;5094043;28;20170;-80
2023/03/22 01:00:19;;;;;;;1.93;1.83;;;9.30;94.00;;;;;;5094204;28;20175;-76
2023/03/22 01:02:45;;;;;;;3.47;2.20;;;9.30;94.10;;;;;;5101087;28;20758;-77
2023/03/22 01:05:14;;;;;;;2.27;2.17;;;9.30;94.00;;;;;;5105445;28;20178;-77
2023/03/22 01:07:43;;;;;;;2.43;2.33;;;9.30;94.10;;;;;;5075792;28;20173;-78
2023/03/22 01:10:10;;;;;;;2.30;2.10;;;9.30;94.10;;;;;;5075076;28;20183;-77
2023/03/22 01:12:37;;;;;;;2.40;2.20;;;9.30;94.00;;;;;;5093164;28;20190;-77
2023/03/22 01:15:04;;;;;;;2.90;2.20;;;9.20;94.10;;;;;;5074969;28;20217;-80
2023/03/22 01:17:30;;;;;;;2.37;2.13;;;9.20;94.30;;;;;;5075724;28;20499;-79
2023/03/22 01:19:56;;;;;;;2.10;2.00;;;9.30;94.10;;;;;;5093463;28;20247;-78
2023/03/22 01:22:22;;;;;;;2.10;2.00;;;9.30;94.20;;;;;;5092893;28;20175;-79
2023/03/22 01:24:48;;;;;;;3.20;2.00;;;9.30;94.00;;;;;;5092397;28;20176;-81
2023/03/22 01:27:15;;;;;;;2.23;1.97;;;9.30;94.00;;;;;;5092547;28;20193;-79
2023/03/22 01:29:40;;;;;;;2.20;2.10;;;9.30;94.00;;;;;;5092804;28;20634;-81
2023/03/22 01:32:06;;;;;;;2.27;2.07;;;9.30;94.10;;;;;;5074779;28;20183;-80
2023/03/22 01:34:32;;;;;;;1.83;1.83;;;9.10;94.30;;;;;;5093033;28;20630;-80
2023/03/22 01:36:58;;;;;;;2.00;1.90;;;9.10;94.30;;;;;;5092812;28;20198;-81
2023/03/22 01:39:24;;;;;;;2.03;1.93;;;9.20;94.40;;;;;;5092857;28;20169;-80
2023/03/22 01:41:50;;;;;;;2.40;2.20;;;9.30;94.30;;;;;;5074786;28;20269;-79
2023/03/22 01:44:21;;;;;;;1.97;1.80;;;9.20;94.60;;;;;;5078250;28;20372;-77
2023/03/22 01:46:48;;;;;;;2.57;2.37;;;9.20;94.30;;;;;;5111700;28;20168;-78
2023/03/22 01:49:34;;;;;;;3.50;2.30;;;9.20;94.30;;;;;;5111928;28;20543;-77
2023/03/22 01:52:05;;;;;;;2.37;2.17;;;9.20;94.30;;;;;;5113995;28;20261;-79
2023/03/22 01:54:37;;;;;;;2.27;2.17;;;9.20;94.30;;;;;;5113345;28;20233;-76
2023/03/22 01:57:03;;;;;;;2.30;2.10;;;9.20;94.40;;;;;;5111565;28;20236;-79
2023/03/22 01:59:29;;;;;;;2.17;2.07;;;9.20;94.40;;;;;;5112751;28;20246;-77
2023/03/22 02:01:58;;;;;;;3.13;2.20;;;9.20;94.40;;;;;;5111590;28;20276;-78
2023/03/22 02:04:32;;;;;;;2.93;2.10;;;9.30;94.40;;;;;;5112741;28;20625;-78
2023/03/22 02:07:14;;;;;;;2.17;2.07;;;9.20;94.40;;;;;;5113221;28;20173;-78
2023/03/22 02:09:43;;;;;;;2.10;2.00;;;9.20;94.50;;;;;;5111946;28;20174;-78
2023/03/22 02:12:34;;;;;;;2.40;2.20;;;9.10;94.50;;;;;;5114755;28;20179;-78
2023/03/22 02:15:13;;;;;;;3.10;2.30;;;9.20;94.50;;;;;;5129062;28;20246;-78
2023/03/22 02:18:10;;;;;;;2.10;2.00;;;9.10;94.60;;;;;;5114811;28;20176;-78
2023/03/22 02:20:40;;;;;;;3.67;2.30;;;9.00;94.70;;;;;;5112683;28;20644;-76
2023/03/22 02:23:28;;;;;;;3.13;2.13;;;9.10;94.60;;;;;;5111329;28;20933;-77
2023/03/22 02:26:34;;;;;;;2.13;2.03;;;9.00;94.70;;;;;;5112348;28;20276;-78
2023/03/22 02:29:28;;;;;;;4.10;2.10;;;9.00;94.80;;;;;;5112750;28;20154;-78
2023/03/22 02:32:33;;;;;;;2.00;1.90;;;9.00;94.80;;;;;;5112606;28;20150;-78
2023/03/22 02:35:10;;;;;;;2.53;2.33;;;9.00;94.90;;;;;;5112095;28;20204;-78
2023/03/22 02:37:42;;;;;;;2.43;2.33;;;9.00;94.80;;;;;;5114861;28;20172;-79
2023/03/22 02:40:24;;;;;;;3.97;2.30;;;9.00;94.90;;;;;;5115435;28;20219;-78
2023/03/22 02:43:13;;;;;;;2.47;2.27;;;9.10;94.80;;;;;;5115411;28;20514;-77
2023/03/22 02:45:44;;;;;;;3.20;2.10;;;9.10;94.90;;;;;;5100897;28;20214;-78
2023/03/22 02:48:20;;;;;;;3.80;2.10;;;9.10;94.90;;;;;;5095885;28;20169;-77
2023/03/22 02:50:54;;;;;;;3.33;2.50;;;9.10;94.90;;;;;;5095924;28;20260;-78
2023/03/22 02:53:41;;;;;;;3.27;2.17;;;9.10;94.90;;;;;;5095857;28;20158;-78
2023/03/22 02:56:13;;;;;;;2.40;2.20;;;9.00;94.90;;;;;;5095958;28;20198;-78
2023/03/22 02:58:46;;;;;;;2.43;2.30;;;9.00;95.10;;;;;;5095952;28;20177;-79
2023/03/22 03:01:24;;;;;;;2.00;1.90;;;8.90;95.10;;;;;;5096554;28;20626;-80
2023/03/22 03:03:55;;;;;;;2.53;2.43;;;8.90;95.20;;;;;;5096278;28;20159;-81
2023/03/22 03:06:24;;;;;;;2.07;1.97;;;8.90;95.20;;;;;;5096941;28;20158;-82
2023/03/22 03:08:52;;;;;;;2.30;2.20;;;8.90;95.30;;;;;;5105715;28;20157;-77
2023/03/22 03:11:18;;;;;;;2.10;2.00;;;8.90;95.20;;;;;;5113618;28;20182;-78
2023/03/22 03:13:49;;;;;;;2.33;2.13;;;8.90;95.20;;;;;;5097638;28;20184;-80
2023/03/22 03:16:19;;;;;;;2.57;2.37;;;8.90;95.30;;;;;;5095859;28;20202;-80
2023/03/22 03:19:06;;;;;;;2.50;2.30;;;8.80;95.40;;;;;;5096082;28;20213;-83
2023/03/22 03:21:53;;;;;;;2.20;2.10;;;8.80;95.40;;;;;;5095569;28;20166;-79
2023/03/22 03:24:31;;;;;;;3.30;2.20;;;8.90;95.40;;;;;;5095509;28;20242;-78
2023/03/22 03:27:02;;;;;;;2.43;2.23;;;8.70;95.90;;;;;;5095378;28;20184;-79
2023/03/22 03:29:32;;;;;;;2.60;2.30;;;8.70;95.60;;;;;;5095203;28;20717;-78
2023/03/22 03:32:03;;;;;;;2.80;2.37;;;8.70;95.50;;;;;;5076425;28;20179;-79
2023/03/22 03:34:34;;;;;;;3.07;2.30;;;8.70;95.60;;;;;;5095157;28;20660;-80
2023/03/22 03:37:08;;;;;;;3.87;2.37;;;8.70;95.70;;;;;;5095284;28;20203;-81
2023/03/22 03:39:40;;;;;;;3.43;2.50;;;8.70;95.70;;;;;;5095049;28;20160;-77
2023/03/22 03:42:10;;;;;;;4.13;2.33;;;8.70;95.70;;;;;;5094890;28;20173;-77
2023/03/22 03:44:37;;;;;;;4.03;2.40;;;8.70;95.70;;;;;;5094631;28;20285;-79
2023/03/22 03:47:06;;;;;;;2.70;2.30;;;8.70;95.70;;;;;;5094851;28;20163;-77
2023/03/22 03:49:34;;;;;;;2.10;2.00;;;8.70;95.70;;;;;;5094292;28;20205;-79
2023/03/22 03:52:02;;;;;;;2.30;2.20;;;8.70;95.70;;;;;;5110328;28;20687;-80
2023/03/22 03:54:28;;;;;;;2.60;2.40;;;8.60;95.90;;;;;;5096769;28;20542;-80
2023/03/22 03:56:54;;;;;;;3.23;2.37;;;8.60;96.00;;;;;;5095621;28;20727;-79
2023/03/22 03:59:19;;;;;;;3.73;2.37;;;8.50;96.00;;;;;;5094958;28;20182;-81
2023/03/22 04:01:50;;;;;;;2.73;2.47;;;8.50;96.10;;;;;;5094734;28;20166;-80
2023/03/22 04:04:25;;;;;;;2.60;2.40;;;8.50;96.10;;;;;;5094778;28;20168;-82
2023/03/22 04:07:03;;;;;;;2.63;2.10;;;8.70;96.10;;;;;;5094910;28;20632;-81
2023/03/22 04:09:32;;;;;;;2.27;2.17;;;8.70;96.00;;;;;;5094871;28;20217;-79
2023/03/22 04:11:58;;;;;;;2.50;2.30;;;8.80;95.90;;;;;;5097501;28;20167;-79
2023/03/22 04:14:25;;;;;;;2.83;2.40;;;8.80;95.90;;;;;;5094555;28;20181;-80
2023/03/22 04:16:51;;;;;;;3.40;2.63;;;8.70;95.90;;;;;;5094360;28;20564;-78
2023/03/22 04:19:17;;;;;;;3.00;2.80;;;8.70;96.10;;;;;;5094488;28;20166;-77
2023/03/22 04:21:44;;;;;;;2.80;2.60;;;8.70;96.00;;;;;;5094484;28;20173;-79
2023/03/22 04:24:11;;;;;;;2.80;2.60;;;8.60;96.10;;;;;;5076161;28;20204;-79
2023/03/22 04:26:37;;;;;;;3.20;2.90;;;8.60;96.50;;;;;;5094152;28;20197;-78
2023/03/22 04:29:03;;;;;;;2.43;2.23;;;8.60;96.20;;;;;;5094155;28;20167;-79
2023/03/22 04:31:31;;;;;;;4.97;2.53;;;8.60;96.20;;;;;;5076023;28;20277;-81
2023/03/22 04:33:59;;;;;;;3.23;2.50;;;8.70;96.00;;;;;;5094151;28;20302;-81
2023/03/22 04:36:29;;;;;;;2.27;2.17;;;8.80;96.00;;;;;;5093933;28;20229;-80
2023/03/22 04:38:56;;;;;;;2.67;2.47;;;8.80;95.90;;;;;;5093948;28;20231;-78
2023/03/22 04:41:22;;;;;;;3.40;2.40;;;8.80;96.00;;;;;;5094203;28;20676;-79
2023/03/22 04:43:49;;;;;;;3.00;2.80;;;8.80;96.30;;;;;;5075740;28;20533;-79
2023/03/22 04:46:16;;;;;;;2.70;2.40;;;8.90;95.90;;;;;;5075433;28;20205;-79
2023/03/22 04:48:42;;;;;;;2.93;2.60;;;9.00;95.90;;;;;;5093754;28;20171;-79
2023/03/22 04:51:10;;;;;;;3.20;2.47;;;8.90;95.90;;;;;;5093664;28;20178;-79
2023/03/22 04:53:39;;;;;;;4.80;2.73;;;8.90;96.00;;;;;;5075280;28;20177;-79
2023/03/22 04:56:08;;;;;;;2.87;2.63;;;9.00;95.90;;;;;;5093447;28;20731;-77
2023/03/22 04:58:35;;;;;;;3.97;2.80;;;9.00;95.90;;;;;;5042454;28;20171;-77
2023/03/22 05:01:02;;;;;;;3.60;2.57;;;8.90;95.90;;;;;;5093749;28;20714;-77
2023/03/22 05:03:28;;;;;;;2.80;2.60;;;9.00;95.90;;;;;;5093833;28;20566;-80
2023/03/22 05:05:56;;;;;;;3.47;2.97;;;9.00;95.80;;;;;;5094077;28;20231;-77
2023/03/22 05:08:23;;;;;;;3.20;3.00;;;9.10;95.70;;;;;;5096077;28;20190;-77
2023/03/22 05:10:52;;;;;;;2.80;2.57;;;9.00;95.80;;;;;;5095084;28;20204;-77
2023/03/22 05:13:20;;;;;;;3.40;2.43;;;9.10;95.70;;;;;;5096980;28;20201;-78
2023/03/22 05:15:47;;;;;;;5.37;3.00;;;9.00;95.70;;;;;;5105972;28;20206;-79
2023/03/22 05:18:14;;;;;;;2.87;2.43;;;9.10;95.80;;;;;;5111417;28;20173;-78
2023/03/22 05:20:42;;;;;;;2.60;2.40;;;9.10;95.60;;;;;;5097888;28;20203;-79
2023/03/22 05:23:10;;;;;;;3.60;2.50;;;9.10;95.70;;;;;;5076250;28;20178;-78
2023/03/22 05:25:37;;;;;;;3.07;2.77;;;9.00;95.80;;;;;;5083909;28;20174;-78
2023/03/22 05:28:04;;;;;;;4.73;2.70;;;9.10;95.80;;;;;;5091870;28;20549;-77
2023/03/22 05:30:31;;;;;;;2.77;2.57;;;9.10;95.90;;;;;;5093511;28;20169;-78
2023/03/22 05:32:58;;;;;;;3.77;2.77;;;9.10;95.90;;;;;;5093248;28;20232;-78
2023/03/22 05:35:25;;;;;;;3.07;2.73;;;9.10;96.00;;;;;;5092802;28;20194;-76
2023/03/22 05:37:51;;;;;;;3.03;2.80;;;9.20;95.80;;;;;;5091641;28;20250;-77
2023/03/22 05:40:17;;;;;;;3.13;2.67;;;9.20;95.70;;;;;;5091992;28;20172;-78
2023/03/22 05:42:44;;;;;;;3.73;2.73;;;9.30;95.70;;;;;;5092411;28;20187;-77
2023/03/22 05:45:10;;;;;;;7.43;3.03;;;9.30;95.60;;;;;;5090727;28;22068;-78
2023/03/22 05:47:38;;;;;;;3.20;2.30;;;9.40;95.70;;;;;;5092075;28;20176;-77
2023/03/22 05:50:06;;;;;;;5.03;3.00;;;9.50;95.60;;;;;;5091383;28;20183;-76
2023/03/22 05:52:31;;;;;;;2.97;2.77;;;9.60;95.50;;;;;;5073694;28;20190;-77
2023/03/22 05:54:57;;;;;;;3.87;2.80;;;9.70;95.50;;;;;;5094817;28;20173;-79
2023/03/22 05:57:23;;;;;;;2.50;2.40;;;9.70;95.50;;;;;;5092248;28;20170;-79
2023/03/22 05:59:52;;;;;;;2.93;2.50;;;9.70;95.30;;;;;;5073814;28;20178;-78
2023/03/22 06:02:19;;;;;;;7.07;2.77;;;9.80;95.30;;;;;;5073883;28;20262;-79
2023/03/22 06:04:46;;;;;;;5.37;3.30;;;9.90;95.20;;;;;;5074438;28;20180;-78
2023/03/22 06:07:12;;;;;;;6.27;2.80;;;9.90;95.20;;;;;;5092005;28;20619;-78
2023/03/22 06:09:38;;;;;;;2.70;2.50;;;9.70;95.40;;;;;;5091772;28;20231;-79
2023/03/22 06:12:05;;;;;;;3.17;2.57;;;9.80;95.30;;;;;;5091272;28;20586;-77
2023/03/22 06:14:30;;;;;;;3.40;2.77;;;9.80;95.30;;;;;;5074002;28;20247;-79
2023/03/22 06:16:56;;;;;;;2.70;2.50;;;9.90;95.20;;;;;;5092112;28;20661;-76
2023/03/22 06:19:24;;;;;;;3.13;2.93;;;9.80;95.40;;;;;;5073340;28;20224;-78
2023/03/22 06:21:51;;;;;;;3.17;2.97;;;9.80;95.50;;;;;;5073916;28;20282;-77
2023/03/22 06:24:18;;;;;;;2.80;2.50;;;9.80;95.40;;;;;;5062140;28;20180;-78
2023/03/22 06:26:44;;;;;;;2.77;2.57;;;9.80;95.40;;;;;;5071734;28;20188;-78
2023/03/22 06:29:10;;;;;;;3.23;2.80;;;9.90;95.40;;;;;;5070824;28;20178;-77
2023/03/22 06:31:39;;;;;;;2.77;2.57;;;10.00;94.80;;;;;;5053427;28;20181;-77
2023/03/22 06:34:06;;;;;;;4.00;3.00;;;10.10;94.70;;;;;;5053892;28;20179;-78
2023/03/22 06:36:31;;;;;;;3.40;3.10;;;10.20;94.50;;;;;;5053170;28;20311;-78
2023/03/22 06:39:01;;;;;;;3.17;2.97;;;10.30;94.50;;;;;;5053323;28;20287;-79
2023/03/22 06:41:27;;;;;;;3.57;3.27;;;10.40;94.40;;;;;;5053465;28;20197;-77
2023/03/22 06:43:53;;;;;;;5.03;3.20;;;10.50;94.40;;;;;;5071644;28;20210;-79
2023/03/22 06:46:19;;;;;;;3.97;2.80;;;10.30;94.40;;;;;;5053542;28;20238;-78
2023/03/22 06:48:44;;;;;;;3.10;2.73;;;10.50;94.50;;;;;;5071588;28;20251;-79
2023/03/22 06:51:10;;;;;;;4.30;3.27;;;10.50;94.30;;;;;;5052966;28;20179;-79
2023/03/22 06:53:36;;;;;;;3.77;3.20;;;10.50;94.40;;;;;;5053439;28;20183;-78
2023/03/22 06:56:02;;;;;;;6.00;2.83;;;10.60;94.20;;;;;;5071288;28;20218;-79
2023/03/22 06:58:27;;;;;;;2.97;2.77;;;10.70;94.20;;;;;;5053263;28;20184;-79
2023/03/22 07:00:55;;;;;;;4.93;2.90;;;10.80;94.10;;;;;;5071315;28;20188;-76
2023/03/22 07:03:21;;;;;;;4.37;2.80;;;10.90;94.10;;;;;;5071713;28;20180;-78
2023/03/22 07:05:47;;;;;;;5.37;3.30;;;11.10;94.00;;;;;;5071549;28;20212;-78
2023/03/22 07:08:13;;;;;;;3.87;3.20;;;11.20;93.80;;;;;;5091116;28;20182;-78
2023/03/22 07:10:38;;;;;;;6.17;4.33;;;11.20;93.80;;;;;;5092360;28;20186;-77
2023/03/22 07:13:04;;;;;;;3.37;3.17;;;11.30;93.60;;;;;;5091792;28;20672;-79
2023/03/22 07:15:31;;;;;;;3.63;2.87;;;11.40;93.50;;;;;;5091416;28;20688;-79
2023/03/22 07:17:59;;;;;;;3.90;2.97;;;11.40;93.50;;;;;;5091468;28;20178;-77
2023/03/22 07:20:26;;;;;;;3.37;3.07;;;11.40;93.40;;;;;;5091379;28;20201;-77
2023/03/22 07:22:52;;;;;;;4.03;2.90;;;11.50;93.40;;;;;;5091532;28;20178;-79
2023/03/22 07:25:18;;;;;;;3.23;2.93;;;11.60;93.40;;;;;;5094950;28;20175;-78
2023/03/22 07:27:44;;;;;;;3.07;2.87;;;11.60;93.40;;;;;;5094997;28;20644;-78
2023/03/22 07:30:11;;;;;;;6.50;2.70;;;11.60;93.40;;;;;;5094676;28;20198;-78
2023/03/22 07:32:39;;;;;;;4.57;3.03;;;11.70;93.20;;;;;;5094480;28;20175;-78
2023/03/22 07:35:05;;;;;;;5.67;2.60;;;11.80;93.20;;;;;;5094442;28;20169;-79
2023/03/22 07:37:31;;;;;;;4.50;3.07;;;11.80;93.10;;;;;;5097082;28;20822;-78
2023/03/22 07:39:57;;;;;;;4.03;2.53;;;11.70;93.20;;;;;;5094521;28;20175;-77
2023/03/22 07:42:23;;;;;;;3.80;2.80;;;11.80;93.20;;;;;;5076330;28;20265;-79
2023/03/22 07:44:48;;;;;;;4.30;2.97;;;11.80;93.10;;;;;;5095541;28;20226;-78
2023/03/22 07:47:14;;;;;;;3.53;2.60;;;11.70;92.90;;;;;;5096361;28;20284;-78
2023/03/22 07:49:40;;;;;;;3.53;2.93;;;11.80;93.20;;;;;;5094690;28;20178;-78
2023/03/22 07:52:06;;;;;;;8.90;3.00;;;11.90;92.90;;;;;;5094094;28;20318;-79
2023/03/22 07:54:32;;;;;;;4.13;2.70;;;12.10;92.90;;;;;;5094582;28;20223;-77
2023/03/22 07:56:58;;;;;;;5.30;2.93;;;12.10;92.80;;;;;;5095100;28;20201;-80
2023/03/22 07:59:24;;;;;;;3.23;2.93;;;12.20;92.60;;;;;;5094983;28;20261;-78
2023/03/22 08:01:50;;;;;;;4.73;3.00;;;12.20;92.80;;;;;;5093956;28;20184;-79
2023/03/22 08:04:16;;;;;;;5.20;3.23;;;12.30;92.70;;;;;;5075919;28;20224;-77
2023/03/22 08:06:42;;;;;;;4.53;2.60;;;12.30;92.80;;;;;;5094248;28;20259;-77
2023/03/22 08:09:08;;;;;;;3.33;3.03;;;12.40;92.50;;;;;;5094177;28;20571;-78
2023/03/22 08:11:35;;;;;;;3.13;2.83;;;12.50;92.70;;;;;;5093785;28;20176;-78
2023/03/22 08:14:00;;;;;;;3.80;2.73;;;12.60;92.50;;;;;;5094432;28;20177;-78
2023/03/22 08:16:26;;;;;;;5.43;2.60;;;12.70;92.20;;;;;;5093832;28;20204;-78
2023/03/22 08:18:52;;;;;;;4.40;2.87;;;12.80;92.20;;;;;;5093805;28;20167;-78
2023/03/22 08:21:18;;;;;;;2.93;2.73;;;13.00;92.10;;;;;;5093523;28;20174;-76
2023/03/22 08:23:44;;;;;;;3.03;2.60;;;13.20;91.60;;;;;;5075012;28;20192;-79
2023/03/22 08:26:10;;;;;;;3.37;2.50;;;13.20;91.40;;;;;;5093372;28;20186;-77
2023/03/22 08:28:36;;;;;;;3.27;2.90;;;13.30;91.60;;;;;;5093829;28;20623;-76
2023/03/22 08:31:10;;;;;;;4.13;2.70;;;13.30;91.40;;;;;;5093400;28;20183;-77
2023/03/22 08:33:36;;;;;;;4.00;2.53;;;13.40;91.40;;;;;;5075774;28;20188;-77
2023/03/22 08:36:11;;;;;;;2.93;2.67;;;13.60;91.30;;;;;;5093098;28;20712;-78
2023/03/22 08:38:36;;;;;;;4.87;3.10;;;13.80;91.30;;;;;;5093548;28;20194;-77
2023/03/22 08:41:02;;;;;;;2.30;2.20;;;13.90;90.70;;;;;;5093121;28;20274;-77
2023/03/22 08:43:28;;;;;;;2.87;2.67;;;13.90;90.80;;;;;;5075367;28;20339;-77
2023/03/22 08:45:54;;;;;;;2.97;2.77;;;13.90;90.80;;;;;;5093490;28;20222;-79
2023/03/22 08:48:20;;;;;;;3.27;2.97;;;14.00;90.80;;;;;;5093590;28;20261;-79
2023/03/22 08:50:45;;;;;;;2.50;2.40;;;14.00;91.60;;;;;;5075460;28;20543;-79
2023/03/22 08:53:12;;;;;;;2.97;2.77;;;14.00;90.80;;;;;;5074712;28;20239;-80
2023/03/22 08:55:43;;;;;;;4.00;2.43;;;14.00;90.90;;;;;;5075165;28;20275;-79
2023/03/22 08:58:11;;;;;;;5.43;3.00;;;14.10;90.60;;;;;;5093052;28;20187;-78
2023/03/22 09:00:38;;;;;;;2.77;2.47;;;14.00;91.10;;;;;;5093040;28;20170;-78
2023/03/22 09:03:04;;;;;;;2.77;2.60;;;14.00;91.00;;;;;;5074506;28;20258;-78
2023/03/22 09:05:30;;;;;;;5.60;2.90;;;14.00;90.80;;;;;;5093247;28;20721;-78
2023/03/22 09:07:56;;;;;;;4.03;2.57;;;13.90;91.20;;;;;;5058249;28;20273;-79
2023/03/22 09:10:22;;;;;;;3.10;2.80;;;13.70;91.10;;;;;;5074681;28;20174;-79
2023/03/22 09:12:48;;;;;;;3.13;2.43;;;13.60;91.20;;;;;;5073695;28;20664;-78
2023/03/22 09:15:14;;;;;;;2.90;2.53;;;13.60;91.20;;;;;;5092708;28;20192;-78
2023/03/22 09:17:40;;;;;;;4.50;3.07;;;13.50;91.30;;;;;;5093133;28;20181;-80
2023/03/22 09:20:07;;;;;;;3.30;2.70;;;13.40;91.30;;;;;;5093108;28;20528;-80
2023/03/22 09:22:32;;;;;;;5.30;2.70;;;13.40;91.60;;;;;;5092568;28;20170;-78
2023/03/22 09:24:58;;;;;;;3.17;2.97;;;13.40;91.50;;;;;;5074960;28;20188;-78
2023/03/22 09:27:24;;;;;;;3.77;2.73;;;13.50;91.30;;;;;;5092991;28;20194;-76
2023/03/22 09:29:51;;;;;;;3.27;2.97;;;13.50;91.20;;;;;;5092877;28;20174;-77
2023/03/22 09:32:17;;;;;;;3.43;2.80;;;13.60;91.50;;;;;;5092400;28;20277;-78
2023/03/22 09:34:43;;;;;;;3.77;2.93;;;13.70;91.60;;;;;;5092704;28;20686;-77
2023/03/22 09:37:11;;;;;;;3.50;3.20;;;13.80;91.20;;;;;;5092600;28;20206;-77
2023/03/22 09:39:38;;;;;;;3.40;2.90;;;13.90;91.20;;;;;;5092504;28;20589;-77
2023/03/22 09:42:09;;;;;;;4.73;3.20;;;14.10;91.10;;;;;;5092298;28;20517;-77
2023/03/22 09:44:42;;;;;;;5.63;3.33;;;14.20;91.00;;;;;;5092632;28;20210;-78
2023/03/22 09:47:20;;;;;;;3.83;3.37;;;14.30;90.70;;;;;;5092209;28;20205;-78
2023/03/22 09:49:49;;;;;;;5.90;3.97;;;14.10;90.90;;;;;;5092589;28;20303;-78
2023/03/22 09:52:16;;;;;;;11.23;3.80;;;14.10;91.10;;;;;;5092131;28;20265;-77
2023/03/22 09:54:45;;;;;;;7.00;4.10;;;14.20;91.10;;;;;;5074545;28;20185;-78
2023/03/22 09:57:20;;;;;;;12.63;4.93;;;14.20;91.10;;;;;;5092820;28;20292;-77
2023/03/22 10:00:21;;;;;;;6.50;4.30;;;14.50;90.90;;;;;;5092432;28;20166;-76
2023/03/22 10:02:55;;;;;;;7.13;4.60;;;14.60;90.70;;;;;;4990025;28;20178;-77
2023/03/22 10:05:45;;;;;;;6.10;4.57;;;14.50;90.60;;;;;;4974410;28;20181;-77
2023/03/22 10:08:31;;;;;;;4.47;4.07;;;14.60;90.60;;;;;;4990756;28;20225;-77
2023/03/22 10:10:58;;;;;;;4.13;3.80;;;14.50;90.40;;;;;;4990349;28;20568;-77
2023/03/22 10:13:47;;;;;;;5.63;4.07;;;14.50;90.20;;;;;;4990210;28;20207;-77
2023/03/22 10:16:25;;;;;;;4.40;4.00;;;14.50;90.40;;;;;;4990234;28;20214;-78
2023/03/22 10:18:53;;;;;;;4.80;4.30;;;14.50;90.40;;;;;;4990416;28;20677;-77
2023/03/22 10:21:20;;;;;;;5.50;4.33;;;14.60;90.70;;;;;;4990127;28;20209;-76
2023/03/22 10:23:59;;;;;;;5.87;4.10;;;14.80;90.70;;;;;;4990457;28;20192;-77
2023/03/22 10:26:34;;;;;;;6.63;4.73;;;14.90;90.60;;;;;;4990224;28;20207;-77
2023/03/22 10:29:03;;;;;;;5.53;5.00;;;15.00;90.50;;;;;;4990307;28;20192;-77
2023/03/22 10:31:30;;;;;;;5.13;4.63;;;15.10;90.40;;;;;;4990404;28;20244;-78
2023/03/22 10:34:02;;;;;;;4.73;4.33;;;15.30;90.30;;;;;;4989999;28;20753;-77
2023/03/22 10:36:33;;;;;;;8.13;4.40;;;15.40;90.20;;;;;;5028976;28;20223;-78
2023/03/22 10:39:30;;;;;;;6.83;4.40;;;15.40;90.10;;;;;;5093329;28;20169;-79
2023/03/22 10:42:09;;;;;;;4.83;4.50;;;15.60;90.00;;;;;;5073849;28;20172;-76
2023/03/22 10:44:47;;;;;;;6.33;4.50;;;15.70;89.50;;;;;;5082360;28;20233;-78
2023/03/22 10:47:17;;;;;;;4.73;4.33;;;15.70;90.00;;;;;;5110771;28;20165;-79
2023/03/22 10:49:48;;;;;;;4.73;4.30;;;15.80;89.90;;;;;;5111076;28;20174;-76
2023/03/22 10:52:21;;;;;;;5.27;4.10;;;15.80;89.70;;;;;;5112105;28;20161;-79
2023/03/22 10:54:47;;;;;;;4.40;4.10;;;15.90;89.50;;;;;;5110246;28;20293;-79
2023/03/22 10:57:13;;;;;;;4.70;4.00;;;15.90;89.60;;;;;;5110477;28;20218;-77
2023/03/22 10:59:55;;;;;;;5.23;4.30;;;16.10;89.10;;;;;;5114421;28;20174;-77
2023/03/22 11:02:27;;;;;;;4.87;4.10;;;15.90;88.90;;;;;;5114334;28;20173;-77
2023/03/22 11:04:56;;;;;;;3.87;3.67;;;16.00;88.60;;;;;;5116097;28;20158;-78
2023/03/22 11:07:33;;;;;;;4.43;4.03;;;16.10;87.90;;;;;;5114558;28;20204;-79
2023/03/22 11:10:08;;;;;;;4.23;3.93;;;16.10;88.00;;;;;;5114549;28;20174;-77
2023/03/22 11:12:36;;;;;;;4.67;4.00;;;16.20;87.50;;;;;;5114176;28;20173;-79
2023/03/22 11:15:03;;;;;;;3.80;3.60;;;16.40;86.70;;;;;;5114127;28;20467;-78
2023/03/22 11:17:31;;;;;;;5.47;3.80;;;16.20;86.90;;;;;;5097197;28;20207;-78
2023/03/22 11:20:04;;;;;;;4.23;3.83;;;16.20;87.50;;;;;;5113882;28;20264;-78
2023/03/22 11:22:38;;;;;;;4.40;3.87;;;16.30;86.70;;;;;;5114070;28;20162;-78
2023/03/22 11:25:45;;;;;;;4.30;3.90;;;16.40;86.40;;;;;;5114202;28;20173;-79
2023/03/22 11:28:18;;;;;;;4.47;4.03;;;16.20;87.00;;;;;;5032695;28;20187;-78
2023/03/22 11:31:06;;;;;;;4.27;3.87;;;16.20;86.30;;;;;;5032582;28;20180;-79
2023/03/22 11:33:33;;;;;;;4.27;3.87;;;16.30;86.20;;;;;;5032601;28;20193;-78
2023/03/22 11:36:02;;;;;;;4.37;4.07;;;16.30;86.00;;;;;;5032301;28;20280;-79
2023/03/22 11:38:29;;;;;;;4.23;3.83;;;16.40;86.10;;;;;;5032181;28;20176;-77
2023/03/22 11:41:01;;;;;;;4.40;4.10;;;16.50;85.10;;;;;;5032842;28;20267;-79
2023/03/22 11:43:38;;;;;;;4.90;4.40;;;16.60;85.60;;;;;;5016781;28;20188;-79
2023/03/22 11:46:06;;;;;;;4.30;4.00;;;16.70;85.80;;;;;;5033049;28;20314;-78
2023/03/22 11:48:32;;;;;;;4.47;4.07;;;17.00;85.30;;;;;;5033121;28;20222;-78
2023/03/22 11:51:11;;;;;;;4.47;4.07;;;17.20;85.50;;;;;;5033288;28;20208;-78
2023/03/22 11:53:42;;;;;;;5.03;4.10;;;17.40;84.90;;;;;;5017667;28;20183;-78
2023/03/22 11:56:11;;;;;;;3.57;3.33;;;17.60;84.80;;;;;;5033400;28;20216;-77
2023/03/22 11:58:36;;;;;;;3.87;3.57;;;17.70;85.00;;;;;;5016857;28;20269;-78
2023/03/22 12:01:04;;;;;;;3.57;3.27;;;17.70;83.00;;;;;;5023657;28;20719;-79
2023/03/22 12:03:34;;;;;;;3.33;3.00;;;17.70;82.20;;;;;;5114569;28;20197;-78
2023/03/22 12:06:11;;;;;;;3.00;2.67;;;17.80;81.90;;;;;;5114112;28;20173;-77
2023/03/22 12:08:48;;;;;;;2.77;2.67;;;17.90;80.30;;;;;;5115419;28;20621;-77
2023/03/22 12:11:20;;;;;;;2.83;2.63;;;18.10;81.10;;;;;;5114166;28;20260;-79
2023/03/22 12:13:55;;;;;;;2.97;2.63;;;18.10;80.10;;;;;;5115880;28;20189;-77
2023/03/22 12:16:27;;;;;;;2.23;2.13;;;18.10;79.00;;;;;;5113674;28;20201;-78
2023/03/22 12:19:15;;;;;;;2.77;2.57;;;18.10;79.70;;;;;;5114455;28;20617;-76
2023/03/22 12:21:41;;;;;;;2.00;1.90;;;18.00;78.20;;;;;;5114236;28;20203;-79
2023/03/22 12:24:26;;;;;;;3.00;1.87;;;18.00;75.40;;;;;;5113479;28;20553;-79
2023/03/22 12:26:55;;;;;;;2.40;2.30;;;18.00;76.20;;;;;;5115480;28;20173;-77
2023/03/22 12:29:21;;;;;;;2.67;2.37;;;17.90;77.00;;;;;;5114041;28;20174;-76
2023/03/22 12:32:37;;;;;;;2.47;2.37;;;17.80;76.80;;;;;;5096678;28;20181;-77
2023/03/22 12:35:24;;;;;;;6.93;3.53;;;17.70;78.30;;;;;;5100689;28;20645;-77
2023/03/22 12:37:56;;;;;;;3.33;2.20;;;17.50;78.50;;;;;;5113791;28;20192;-77
2023/03/22 12:40:36;;;;;;;2.47;2.37;;;17.40;78.10;;;;;;5113567;28;20177;-78
2023/03/22 12:43:43;;;;;;;2.30;2.20;;;17.30;78.70;;;;;;5097163;28;20185;-79
2023/03/22 12:46:33;;;;;;;2.07;1.97;;;17.10;79.10;;;;;;5015003;28;20254;-77
2023/03/22 12:49:20;;;;;;;2.83;2.07;;;17.20;78.60;;;;;;5032320;28;20191;-78
2023/03/22 12:51:47;;;;;;;2.00;1.90;;;17.30;78.30;;;;;;5031790;28;20586;-79
2023/03/22 12:54:16;;;;;;;2.77;2.00;;;17.40;78.50;;;;;;5031816;28;20199;-79
2023/03/22 12:56:49;;;;;;;2.20;2.07;;;17.30;78.80;;;;;;5031758;28;20236;-79
2023/03/22 12:59:22;;;;;;;2.10;2.00;;;17.30;79.00;;;;;;5032432;28;20295;-78
2023/03/22 13:01:55;;;;;;;2.20;2.00;;;17.40;78.20;;;;;;5015629;28;20188;-80
2023/03/22 13:04:36;;;;;;;2.20;2.10;;;17.40;78.10;;;;;;5032301;28;20195;-79
2023/03/22 13:07:14;;;;;;;2.57;2.07;;;17.30;76.10;;;;;;5015592;28;20184;-78
2023/03/22 13:09:47;;;;;;;2.13;2.03;;;17.30;75.50;;;;;;5031480;28;20184;-78